Аэропорт
Шымкент (UAII)

 UAII / CIT
ЗЦ Центральная Азия
Шымкент (UAII)
Шымкент (UAII)
 42.36420, 69.47890  / 1385 ft

 UAII 132300Z 1400/1424 13005MPS 5000 BR FU BKN100 TX13/1409Z TNM00/1402Z TEMPO 1400/1405 VRB01MPS 1000 FM140500 06006MPS 7000 SCT100 FM141200 09007MPS 3000 FU BR SCT050 BKN100
показать схемы
Название сценария Тип сценария Flight Simulator 9 Flight Simulator X Prepar3D v2 Prepar3D v3 Prepar3D v4 xPlane
Recommended scenery for FS9 бесплатный
Recommended scenery for FSX бесплатный


2018 © VATRUS division